Time;durP1;ratioP1;P1;durP2;ratioP2;P2;SDS_P1;SDS_P2;PMS_P1;PMS_P2;Temp;Humidity;BMP_temperature;BMP_pressure;BME280_temperature;BME280_humidity;BME280_pressure;Samples;Min_cycle;Max_cycle;Signal;HPM_P1;HPM_P2
2021/04/24 00:02:17;;;;;;;0.45;0.45;;;6.50;99.90;;;;;;4990950;28;20199;-73
2021/04/24 00:04:43;;;;;;;0.10;0.10;;;6.50;99.90;;;;;;4991469;28;20152;-73
2021/04/24 00:07:10;;;;;;;0.10;0.10;;;6.50;99.90;;;;;;4991464;28;20163;-73
2021/04/24 00:09:37;;;;;;;0.30;0.30;;;6.40;99.90;;;;;;4991335;28;20258;-73
2021/04/24 00:12:04;;;;;;;0.00;0.00;;;6.30;99.90;;;;;;4991360;28;20183;-74
2021/04/24 00:14:30;;;;;;;0.65;0.65;;;6.30;99.90;;;;;;4991306;28;20174;-73
2021/04/24 00:16:56;;;;;;;0.35;0.35;;;6.20;99.90;;;;;;4991086;28;20218;-73
2021/04/24 00:19:21;;;;;;;0.08;0.08;;;6.30;99.90;;;;;;4989470;28;20198;-72
2021/04/24 00:21:48;;;;;;;0.05;0.05;;;6.20;99.90;;;;;;4990059;28;20187;-73
2021/04/24 00:24:14;;;;;;;0.85;0.77;;;6.20;99.90;;;;;;4991037;28;20182;-72
2021/04/24 00:26:40;;;;;;;0.45;0.43;;;6.20;99.90;;;;;;4991087;28;20215;-73
2021/04/24 00:29:06;;;;;;;0.10;0.10;;;6.10;99.90;;;;;;4991631;28;20305;-73
2021/04/24 00:31:33;;;;;;;0.43;0.25;;;5.90;99.90;;;;;;4991781;28;20159;-73
2021/04/24 00:33:59;;;;;;;0.47;0.47;;;5.80;99.90;;;;;;4991316;28;20205;-73
2021/04/24 00:36:25;;;;;;;0.10;0.10;;;5.80;99.90;;;;;;4990871;28;20218;-73
2021/04/24 00:38:51;;;;;;;0.35;0.35;;;5.80;99.90;;;;;;4990790;28;20187;-73
2021/04/24 00:41:17;;;;;;;0.10;0.10;;;5.90;99.90;;;;;;4989398;28;20167;-73
2021/04/24 00:43:43;;;;;;;0.80;0.80;;;5.90;99.90;;;;;;4990558;28;20245;-73
2021/04/24 00:46:13;;;;;;;0.10;0.10;;;5.90;99.90;;;;;;4990438;28;20493;-73
2021/04/24 00:48:40;;;;;;;0.57;0.57;;;5.90;99.90;;;;;;4990217;28;20202;-73
2021/04/24 00:51:08;;;;;;;0.80;0.43;;;5.80;99.90;;;;;;4990321;28;20167;-73
2021/04/24 00:53:34;;;;;;;0.00;0.00;;;5.90;99.90;;;;;;4990403;28;20213;-73
2021/04/24 00:56:01;;;;;;;0.20;0.20;;;6.20;99.90;;;;;;4988993;28;20199;-73
2021/04/24 00:58:27;;;;;;;0.32;0.32;;;6.40;99.90;;;;;;4990281;28;20195;-73
2021/04/24 01:00:55;;;;;;;0.10;0.10;;;6.60;99.90;;;;;;4988887;28;20190;-73
2021/04/24 01:03:21;;;;;;;0.20;0.20;;;6.70;99.90;;;;;;4990283;28;20543;-73
2021/04/24 01:05:47;;;;;;;0.00;0.00;;;6.80;99.90;;;;;;4990132;28;20246;-74
2021/04/24 01:08:13;;;;;;;0.20;0.20;;;6.80;99.90;;;;;;4990095;28;20322;-73
2021/04/24 01:10:43;;;;;;;0.90;0.85;;;6.80;99.90;;;;;;4989970;28;20163;-73
2021/04/24 01:13:09;;;;;;;0.10;0.10;;;6.90;99.90;;;;;;4990102;28;20162;-73
2021/04/24 01:15:36;;;;;;;0.40;0.40;;;6.90;99.90;;;;;;4989901;28;20255;-74
2021/04/24 01:18:05;;;;;;;0.10;0.10;;;6.90;99.90;;;;;;4989857;28;20195;-73
2021/04/24 01:20:33;;;;;;;0.20;0.20;;;6.90;99.90;;;;;;4988275;28;20238;-74
2021/04/24 01:22:59;;;;;;;0.40;0.40;;;6.80;99.90;;;;;;4989799;28;20168;-74
2021/04/24 01:25:26;;;;;;;0.10;0.10;;;6.90;99.90;;;;;;4989714;28;20179;-73
2021/04/24 01:27:55;;;;;;;0.95;0.63;;;6.90;99.90;;;;;;4989453;28;20187;-73
2021/04/24 01:30:27;;;;;;;1.00;0.95;;;6.80;99.90;;;;;;4989440;28;20167;-74
2021/04/24 01:32:55;;;;;;;0.30;0.30;;;6.60;99.90;;;;;;4989432;28;20170;-73
2021/04/24 01:35:24;;;;;;;0.20;0.20;;;6.40;99.90;;;;;;4989528;28;20222;-73
2021/04/24 01:37:51;;;;;;;0.17;0.17;;;6.30;99.90;;;;;;4989384;28;20195;-75
2021/04/24 01:40:18;;;;;;;0.15;0.15;;;6.10;99.90;;;;;;4971967;28;20217;-73
2021/04/24 01:42:45;;;;;;;1.55;0.57;;;6.00;99.90;;;;;;4989570;28;20206;-73
2021/04/24 01:45:13;;;;;;;0.15;0.15;;;6.00;99.90;;;;;;4981729;28;20200;-73
2021/04/24 01:47:41;;;;;;;0.10;0.10;;;6.00;99.90;;;;;;4969881;28;20227;-73
2021/04/24 01:50:10;;;;;;;0.13;0.13;;;5.90;99.90;;;;;;4970088;28;20636;-74
2021/04/24 01:52:38;;;;;;;0.10;0.10;;;5.80;99.90;;;;;;4970027;28;20224;-74
2021/04/24 01:55:07;;;;;;;0.13;0.13;;;5.70;99.90;;;;;;4968789;29;20250;-74
2021/04/24 01:57:33;;;;;;;0.20;0.20;;;5.70;99.90;;;;;;4970077;28;20198;-73
2021/04/24 02:00:01;;;;;;;0.10;0.10;;;5.70;99.90;;;;;;4969848;28;20166;-74
2021/04/24 02:02:27;;;;;;;0.35;0.35;;;5.60;99.90;;;;;;4969986;28;20172;-73
2021/04/24 02:04:53;;;;;;;0.10;0.10;;;5.60;99.90;;;;;;4969872;28;20199;-73
2021/04/24 02:07:19;;;;;;;0.10;0.10;;;5.60;99.90;;;;;;4968589;29;20183;-74
2021/04/24 02:09:44;;;;;;;0.10;0.10;;;5.70;99.90;;;;;;4969961;28;20172;-74
2021/04/24 02:12:13;;;;;;;2.70;2.45;;;5.70;99.90;;;;;;4968672;29;20172;-73
2021/04/24 02:14:43;;;;;;;0.10;0.10;;;5.80;99.90;;;;;;4969734;28;20188;-74
2021/04/24 02:17:18;;;;;;;1.55;1.45;;;5.90;99.90;;;;;;4969822;28;20260;-74
2021/04/24 02:19:46;;;;;;;0.10;0.10;;;5.90;99.90;;;;;;4969831;28;20215;-74
2021/04/24 02:22:14;;;;;;;0.05;0.05;;;5.90;99.90;;;;;;4969823;28;20152;-74
2021/04/24 02:24:45;;;;;;;3.85;2.75;;;6.00;99.90;;;;;;4970285;28;20180;-73
2021/04/24 02:27:12;;;;;;;0.00;0.00;;;6.00;99.90;;;;;;4970505;28;20163;-73
2021/04/24 02:29:42;;;;;;;0.52;0.52;;;6.00;99.90;;;;;;4970280;28;20168;-74
2021/04/24 02:32:10;;;;;;;11.40;1.33;;;5.80;99.90;;;;;;4969773;28;20181;-74
2021/04/24 02:34:39;;;;;;;0.25;0.25;;;5.60;99.90;;;;;;4969609;28;20188;-74
2021/04/24 02:37:06;;;;;;;1.02;0.30;;;5.50;99.90;;;;;;4969848;28;20228;-75
2021/04/24 02:39:38;;;;;;;0.20;0.20;;;5.30;99.90;;;;;;4969690;28;20239;-74
2021/04/24 02:42:07;;;;;;;0.40;0.40;;;5.20;99.90;;;;;;4969431;28;20168;-75
2021/04/24 02:44:34;;;;;;;0.20;0.20;;;5.00;99.90;;;;;;4970114;28;20176;-73
2021/04/24 02:47:00;;;;;;;0.15;0.15;;;4.90;99.90;;;;;;4969670;28;20184;-73
2021/04/24 02:49:27;;;;;;;1.75;1.30;;;5.00;99.90;;;;;;4969505;28;20164;-74
2021/04/24 02:51:54;;;;;;;0.73;0.73;;;4.90;99.90;;;;;;4969525;28;20203;-73
2021/04/24 02:54:22;;;;;;;0.40;0.40;;;4.90;99.90;;;;;;4969661;28;20164;-74
2021/04/24 02:56:49;;;;;;;0.10;0.10;;;5.00;99.90;;;;;;4968055;28;20674;-74
2021/04/24 02:59:15;;;;;;;2.90;1.10;;;5.10;99.90;;;;;;4969510;28;20164;-75
2021/04/24 03:01:43;;;;;;;0.10;0.10;;;5.30;99.90;;;;;;4967990;29;20177;-74
2021/04/24 03:04:10;;;;;;;0.20;0.20;;;5.40;99.90;;;;;;4968128;29;20168;-74
2021/04/24 03:06:36;;;;;;;0.20;0.20;;;5.50;99.90;;;;;;4969431;28;20192;-73
2021/04/24 03:09:02;;;;;;;0.10;0.10;;;5.60;99.90;;;;;;4969389;28;20190;-73
2021/04/24 03:11:29;;;;;;;0.13;0.13;;;5.50;99.90;;;;;;4969349;28;20164;-73
2021/04/24 03:13:55;;;;;;;0.90;0.90;;;5.40;99.90;;;;;;4971009;29;20183;-74
2021/04/24 03:16:21;;;;;;;0.00;0.00;;;5.30;99.90;;;;;;4971559;29;20223;-75
2021/04/24 03:18:47;;;;;;;0.30;0.30;;;5.00;99.90;;;;;;4972881;28;20160;-75
2021/04/24 03:21:13;;;;;;;0.17;0.17;;;4.60;99.90;;;;;;4972932;28;20223;-74
2021/04/24 03:23:39;;;;;;;0.43;0.43;;;4.50;99.90;;;;;;4973034;28;20168;-73
2021/04/24 03:26:05;;;;;;;0.80;0.80;;;4.50;99.90;;;;;;4972936;28;20219;-74
2021/04/24 03:28:31;;;;;;;0.15;0.15;;;4.40;99.90;;;;;;4971607;28;20176;-73
2021/04/24 03:30:57;;;;;;;0.63;0.63;;;4.30;99.90;;;;;;4972722;28;20164;-74
2021/04/24 03:33:23;;;;;;;0.70;0.70;;;4.20;99.90;;;;;;4972742;28;20174;-74
2021/04/24 03:35:49;;;;;;;0.10;0.10;;;3.90;99.90;;;;;;4972490;28;20279;-74
2021/04/24 03:38:15;;;;;;;1.40;0.95;;;3.80;99.90;;;;;;4972393;28;20152;-73
2021/04/24 03:40:41;;;;;;;0.30;0.30;;;3.70;99.90;;;;;;4972412;28;20171;-72
2021/04/24 03:43:07;;;;;;;0.32;0.32;;;3.70;99.90;;;;;;4972398;28;20161;-74
2021/04/24 03:45:35;;;;;;;0.20;0.20;;;3.80;99.90;;;;;;4970789;29;20199;-73
2021/04/24 03:48:02;;;;;;;0.73;0.70;;;4.00;99.90;;;;;;4971063;29;20165;-73
2021/04/24 03:50:28;;;;;;;1.25;0.95;;;4.20;99.90;;;;;;4970918;29;20188;-73
2021/04/24 03:52:54;;;;;;;0.30;0.30;;;4.20;99.90;;;;;;4972324;28;20168;-73
2021/04/24 03:55:20;;;;;;;0.60;0.20;;;4.10;99.90;;;;;;4972191;28;20200;-73
2021/04/24 03:57:48;;;;;;;0.35;0.35;;;4.10;99.90;;;;;;4972485;28;20239;-74
2021/04/24 04:00:19;;;;;;;0.10;0.10;;;4.10;99.90;;;;;;4970943;28;20286;-74
2021/04/24 04:02:51;;;;;;;0.95;0.80;;;4.00;99.90;;;;;;4970889;29;20322;-73
2021/04/24 04:05:18;;;;;;;0.40;0.40;;;4.00;99.90;;;;;;4970613;29;20196;-74
2021/04/24 04:07:45;;;;;;;0.20;0.20;;;4.00;99.90;;;;;;4971948;28;20168;-73
2021/04/24 04:10:17;;;;;;;0.10;0.10;;;4.00;99.90;;;;;;4970577;28;20195;-73
2021/04/24 04:12:44;;;;;;;0.10;0.10;;;4.00;99.90;;;;;;4970609;28;20179;-73
2021/04/24 04:15:12;;;;;;;0.20;0.20;;;4.10;99.90;;;;;;4971858;28;20558;-72
2021/04/24 04:17:38;;;;;;;1.20;1.10;;;4.10;99.90;;;;;;4971862;28;20192;-74
2021/04/24 04:20:10;;;;;;;0.10;0.10;;;4.00;99.90;;;;;;4971443;28;20293;-74
2021/04/24 04:22:37;;;;;;;0.95;0.95;;;4.10;99.90;;;;;;4971715;28;20583;-74
2021/04/24 04:25:06;;;;;;;0.10;0.10;;;4.10;99.90;;;;;;4971315;28;20667;-74
2021/04/24 04:27:32;;;;;;;0.10;0.10;;;4.20;99.90;;;;;;4971619;28;20156;-74
2021/04/24 04:29:58;;;;;;;0.10;0.10;;;4.30;99.90;;;;;;4971561;28;20174;-73
2021/04/24 04:32:24;;;;;;;0.10;0.10;;;4.30;99.90;;;;;;4971635;28;20240;-74
2021/04/24 04:34:50;;;;;;;0.35;0.35;;;4.50;99.90;;;;;;4971830;28;20215;-74
2021/04/24 04:37:16;;;;;;;0.50;0.50;;;4.80;99.90;;;;;;4971225;28;20195;-73
2021/04/24 04:39:42;;;;;;;0.20;0.20;;;5.40;99.90;;;;;;4971300;28;20167;-73
2021/04/24 04:42:08;;;;;;;0.10;0.10;;;6.10;99.90;;;;;;4971538;28;20164;-73
2021/04/24 04:44:35;;;;;;;0.45;0.45;;;6.40;99.90;;;;;;4971365;28;20176;-75
2021/04/24 04:47:00;;;;;;;0.10;0.10;;;6.70;99.90;;;;;;4971307;28;20224;-74
2021/04/24 04:49:27;;;;;;;0.08;0.08;;;6.80;99.90;;;;;;4971267;28;20164;-72
2021/04/24 04:51:53;;;;;;;0.10;0.10;;;7.00;99.90;;;;;;4969798;28;20180;-73
2021/04/24 04:54:19;;;;;;;0.00;0.00;;;7.20;99.90;;;;;;4971311;28;20160;-73
2021/04/24 04:56:45;;;;;;;0.75;0.43;;;7.20;99.90;;;;;;4969531;29;20211;-73
2021/04/24 04:59:11;;;;;;;0.13;0.13;;;7.40;99.90;;;;;;4971043;28;20164;-74
2021/04/24 05:01:36;;;;;;;0.52;0.52;;;7.50;99.90;;;;;;4971030;28;20164;-74
2021/04/24 05:04:02;;;;;;;0.60;0.60;;;7.80;99.90;;;;;;4971268;28;20215;-73
2021/04/24 05:06:28;;;;;;;0.10;0.10;;;8.00;99.90;;;;;;4970863;28;20199;-73
2021/04/24 05:08:54;;;;;;;0.03;0.03;;;8.20;99.90;;;;;;4970959;28;20164;-73
2021/04/24 05:11:20;;;;;;;1.13;1.13;;;8.20;99.90;;;;;;4970906;28;20195;-73
2021/04/24 05:13:45;;;;;;;1.30;1.23;;;7.80;99.90;;;;;;4970578;28;20164;-73
2021/04/24 05:16:11;;;;;;;0.82;0.82;;;7.50;99.90;;;;;;4970699;28;20227;-73
2021/04/24 05:18:37;;;;;;;0.03;0.03;;;7.80;99.90;;;;;;4970759;28;20216;-73
2021/04/24 05:21:03;;;;;;;0.05;0.05;;;8.50;99.90;;;;;;4970376;28;20215;-73
2021/04/24 05:23:29;;;;;;;0.95;0.88;;;8.90;99.90;;;;;;4970677;28;20169;-73
2021/04/24 05:25:55;;;;;;;0.10;0.10;;;9.10;99.90;;;;;;4972329;28;20220;-73
2021/04/24 05:28:21;;;;;;;0.00;0.00;;;9.80;99.90;;;;;;4989582;28;20167;-73
2021/04/24 05:30:47;;;;;;;0.17;0.17;;;10.40;99.90;;;;;;4989788;28;20256;-73
2021/04/24 05:33:13;;;;;;;0.10;0.10;;;10.60;99.90;;;;;;4988475;28;20172;-73
2021/04/24 05:35:39;;;;;;;0.05;0.05;;;10.80;99.90;;;;;;4988663;28;20250;-73
2021/04/24 05:38:04;;;;;;;0.52;0.52;;;11.40;99.90;;;;;;4989705;28;20575;-73
2021/04/24 05:40:31;;;;;;;1.08;0.98;;;11.90;99.90;;;;;;4989832;28;20167;-73
2021/04/24 05:42:57;;;;;;;1.45;1.27;;;12.50;99.90;;;;;;4989627;28;20159;-73
2021/04/24 05:45:23;;;;;;;0.75;0.75;;;13.20;99.90;;;;;;4977538;28;20176;-73
2021/04/24 05:47:50;;;;;;;1.30;0.73;;;13.40;99.90;;;;;;4986491;28;20176;-73
2021/04/24 05:50:22;;;;;;;0.30;0.30;;;14.10;99.90;;;;;;4978585;28;20203;-73
2021/04/24 05:52:48;;;;;;;0.57;0.57;;;14.20;99.90;;;;;;4970875;28;20203;-73
2021/04/24 05:55:14;;;;;;;0.10;0.10;;;14.60;99.90;;;;;;4988001;28;20620;-73
2021/04/24 05:57:41;;;;;;;1.38;1.27;;;14.70;99.90;;;;;;4981525;28;20203;-73
2021/04/24 06:00:17;;;;;;;0.32;0.32;;;15.00;99.90;;;;;;4969935;28;20250;-73
2021/04/24 06:02:43;;;;;;;0.22;0.10;;;15.50;99.90;;;;;;4969929;28;20187;-73
2021/04/24 06:05:10;;;;;;;1.30;0.30;;;16.10;99.90;;;;;;4969877;28;20156;-73
2021/04/24 06:07:38;;;;;;;1.15;1.08;;;16.40;99.90;;;;;;4987059;28;20179;-72
2021/04/24 06:10:06;;;;;;;0.93;0.93;;;16.70;99.90;;;;;;4989088;28;20203;-72
2021/04/24 06:12:31;;;;;;;0.25;0.25;;;16.60;99.90;;;;;;4989056;28;20175;-73
2021/04/24 06:14:58;;;;;;;0.88;0.85;;;16.60;99.90;;;;;;4987885;28;20168;-73
2021/04/24 06:17:24;;;;;;;1.13;0.93;;;17.30;99.90;;;;;;4987716;28;20245;-73
2021/04/24 06:19:50;;;;;;;0.65;0.65;;;17.70;99.90;;;;;;4988712;28;20219;-74
2021/04/24 06:22:17;;;;;;;0.40;0.40;;;17.90;99.90;;;;;;4989070;28;20234;-73
2021/04/24 06:24:43;;;;;;;1.13;0.68;;;18.00;99.90;;;;;;4971264;28;20203;-74
2021/04/24 06:27:09;;;;;;;2.38;1.05;;;19.00;99.90;;;;;;4969753;28;20180;-74
2021/04/24 06:29:35;;;;;;;0.60;0.60;;;19.40;99.90;;;;;;4968233;29;20204;-73
2021/04/24 06:32:02;;;;;;;0.57;0.57;;;19.60;99.90;;;;;;4969759;28;20223;-73
2021/04/24 06:34:28;;;;;;;0.45;0.45;;;19.80;98.70;;;;;;4969729;28;20160;-75
2021/04/24 06:36:54;;;;;;;0.95;0.82;;;20.10;98.10;;;;;;4968166;29;20226;-74
2021/04/24 06:39:20;;;;;;;0.65;0.30;;;20.40;98.30;;;;;;4969630;28;20199;-74
2021/04/24 06:41:46;;;;;;;3.00;0.47;;;20.60;96.30;;;;;;4969715;28;20184;-78
2021/04/24 06:44:13;;;;;;;0.30;0.30;;;19.20;96.90;;;;;;4968148;29;20171;-76
2021/04/24 06:46:38;;;;;;;2.47;0.43;;;17.50;98.60;;;;;;4969089;28;20254;-75
2021/04/24 06:49:05;;;;;;;0.73;0.73;;;17.00;99.90;;;;;;4976794;28;20223;-75
2021/04/24 06:51:31;;;;;;;0.25;0.25;;;16.70;99.50;;;;;;4991669;28;20194;-74
2021/04/24 06:53:57;;;;;;;1.15;0.93;;;16.30;99.70;;;;;;4982656;28;20283;-73
2021/04/24 06:56:22;;;;;;;1.02;1.02;;;17.00;99.30;;;;;;4972562;28;20192;-73
2021/04/24 06:58:49;;;;;;;1.05;0.75;;;17.30;98.90;;;;;;4990044;28;20210;-73
2021/04/24 07:01:14;;;;;;;0.55;0.55;;;17.10;99.30;;;;;;4992153;28;20171;-73
2021/04/24 07:03:40;;;;;;;0.30;0.30;;;17.30;99.90;;;;;;4992479;28;20235;-73
2021/04/24 07:06:06;;;;;;;0.68;0.60;;;17.10;98.10;;;;;;4986868;28;20286;-73
2021/04/24 07:08:32;;;;;;;2.67;1.02;;;17.10;98.50;;;;;;4988551;28;20183;-73
2021/04/24 07:10:59;;;;;;;0.32;0.32;;;17.30;99.20;;;;;;4972199;28;20190;-74
2021/04/24 07:13:25;;;;;;;0.20;0.20;;;18.70;97.80;;;;;;4973005;28;20160;-74
2021/04/24 07:15:51;;;;;;;0.30;0.30;;;19.20;97.50;;;;;;4973052;28;20202;-73
2021/04/24 07:18:17;;;;;;;1.30;0.43;;;19.10;96.20;;;;;;4972951;28;20160;-73
2021/04/24 07:20:43;;;;;;;0.75;0.75;;;18.40;96.40;;;;;;4970886;29;20349;-72
2021/04/24 07:23:09;;;;;;;0.98;0.98;;;17.50;97.20;;;;;;4972886;28;20303;-75
2021/04/24 07:25:35;;;;;;;0.82;0.65;;;17.30;98.20;;;;;;4976102;28;20270;-73
2021/04/24 07:28:01;;;;;;;0.15;0.15;;;17.10;97.20;;;;;;4984474;28;20241;-73
2021/04/24 07:30:27;;;;;;;0.45;0.45;;;16.60;97.70;;;;;;4990792;28;20171;-73
2021/04/24 07:32:53;;;;;;;0.70;0.68;;;17.00;98.10;;;;;;4991894;28;20238;-73
2021/04/24 07:35:18;;;;;;;0.10;0.10;;;18.10;97.70;;;;;;4991565;28;20163;-73
2021/04/24 07:37:45;;;;;;;0.20;0.20;;;17.90;96.40;;;;;;4992033;28;20329;-72
2021/04/24 07:40:13;;;;;;;19.23;1.20;;;17.50;97.40;;;;;;4990799;28;20168;-73
2021/04/24 07:42:39;;;;;;;1.52;1.42;;;17.40;97.30;;;;;;4990537;28;20195;-72
2021/04/24 07:45:05;;;;;;;0.65;0.65;;;17.90;96.60;;;;;;4990122;28;20182;-73
2021/04/24 07:47:31;;;;;;;0.35;0.35;;;17.30;97.30;;;;;;4991225;28;20255;-73
2021/04/24 07:49:58;;;;;;;0.43;0.43;;;17.00;98.10;;;;;;4991809;28;20188;-73
2021/04/24 07:52:23;;;;;;;0.68;0.57;;;17.50;97.20;;;;;;4991884;28;20618;-72
2021/04/24 07:54:50;;;;;;;0.60;0.60;;;17.50;96.70;;;;;;4991807;28;20168;-74
2021/04/24 07:57:16;;;;;;;0.40;0.40;;;17.00;97.30;;;;;;4989971;28;20275;-73
2021/04/24 07:59:42;;;;;;;1.23;0.73;;;17.00;98.30;;;;;;4989742;28;20622;-74
2021/04/24 08:02:09;;;;;;;0.30;0.30;;;17.20;97.50;;;;;;4990333;28;20282;-73
2021/04/24 08:04:35;;;;;;;0.60;0.60;;;17.30;97.70;;;;;;4985393;28;20204;-73
2021/04/24 08:07:02;;;;;;;1.02;1.02;;;17.40;97.00;;;;;;4990961;28;20187;-73
2021/04/24 08:09:27;;;;;;;3.92;1.48;;;17.10;97.90;;;;;;4972908;28;20267;-73
2021/04/24 08:11:54;;;;;;;1.25;1.17;;;17.10;97.90;;;;;;4972287;28;20192;-76
2021/04/24 08:14:19;;;;;;;0.05;0.05;;;17.20;98.20;;;;;;4970886;29;20271;-73
2021/04/24 08:16:45;;;;;;;0.17;0.17;;;17.60;97.70;;;;;;4972364;28;20212;-73
2021/04/24 08:19:11;;;;;;;1.38;1.27;;;18.60;97.70;;;;;;4971330;28;20168;-73
2021/04/24 08:21:39;;;;;;;1.20;1.05;;;19.40;96.80;;;;;;4971744;28;20215;-73
2021/04/24 08:24:05;;;;;;;5.95;3.08;;;19.60;95.60;;;;;;4971947;28;20168;-73
2021/04/24 08:26:31;;;;;;;3.22;2.15;;;18.70;96.00;;;;;;4971840;28;20168;-74
2021/04/24 08:28:58;;;;;;;0.32;0.32;;;17.90;97.70;;;;;;4971618;28;20187;-74
2021/04/24 08:31:24;;;;;;;0.13;0.13;;;18.90;96.20;;;;;;4969744;28;20175;-74
2021/04/24 08:33:50;;;;;;;1.05;1.05;;;19.80;95.70;;;;;;4970512;28;20202;-75
2021/04/24 08:36:16;;;;;;;1.00;0.32;;;20.40;95.60;;;;;;4970242;29;20215;-73
2021/04/24 08:38:42;;;;;;;4.55;1.10;;;20.60;94.40;;;;;;4971553;28;20163;-73
2021/04/24 08:41:08;;;;;;;2.53;1.45;;;19.50;95.00;;;;;;4969739;29;20167;-73
2021/04/24 08:43:38;;;;;;;0.47;0.47;;;19.20;96.40;;;;;;4970133;28;20200;-73
2021/04/24 08:46:04;;;;;;;2.60;0.35;;;19.30;97.00;;;;;;4971406;28;20634;-74
2021/04/24 08:48:31;;;;;;;0.70;0.70;;;18.30;98.10;;;;;;4969838;28;20172;-73
2021/04/24 08:50:57;;;;;;;1.38;1.25;;;19.40;95.90;;;;;;4978405;28;20198;-73
2021/04/24 08:53:23;;;;;;;1.58;0.52;;;20.20;95.40;;;;;;4971213;28;20199;-73
2021/04/24 08:55:50;;;;;;;2.83;2.20;;;19.40;95.20;;;;;;4970853;28;20215;-73
2021/04/24 08:58:17;;;;;;;0.20;0.20;;;19.20;95.80;;;;;;4982569;28;20186;-75
2021/04/24 09:00:45;;;;;;;1.55;1.45;;;20.00;96.40;;;;;;4990610;28;20632;-74
2021/04/24 09:03:15;;;;;;;0.93;0.93;;;20.40;95.90;;;;;;4989477;28;20169;-73
2021/04/24 09:05:42;;;;;;;10.43;0.77;;;19.90;95.40;;;;;;4989282;28;20247;-73
2021/04/24 09:08:10;;;;;;;14.05;0.82;;;20.20;95.70;;;;;;4989790;28;20235;-73
2021/04/24 09:10:39;;;;;;;0.65;0.65;;;20.50;95.90;;;;;;4987583;28;20166;-73
2021/04/24 09:13:06;;;;;;;0.30;0.30;;;20.00;95.30;;;;;;4989886;28;20198;-73
2021/04/24 09:15:32;;;;;;;4.47;1.52;;;20.60;95.10;;;;;;4989842;28;20225;-72
2021/04/24 09:18:09;;;;;;;1.05;0.85;;;21.40;94.60;;;;;;4982804;28;20179;-73
2021/04/24 09:21:03;;;;;;;1.25;0.70;;;22.50;94.20;;;;;;4974089;28;20227;-73
2021/04/24 09:23:30;;;;;;;3.97;1.83;;;22.00;94.40;;;;;;4917605;29;20196;-74
2021/04/24 09:26:04;;;;;;;0.90;0.90;;;20.60;94.90;;;;;;4931737;29;20201;-72
2021/04/24 09:28:32;;;;;;;0.30;0.30;;;20.20;94.90;;;;;;4931365;29;20197;-72
2021/04/24 09:31:08;;;;;;;0.13;0.13;;;19.70;96.20;;;;;;4932134;29;20176;-72
2021/04/24 09:33:35;;;;;;;1.98;0.77;;;19.60;96.10;;;;;;4914687;29;20763;-72
2021/04/24 09:36:02;;;;;;;2.75;0.77;;;20.40;97.10;;;;;;4915021;29;20219;-72
2021/04/24 09:38:29;;;;;;;1.52;1.45;;;21.60;94.80;;;;;;4914464;29;20200;-73
2021/04/24 09:41:25;;;;;;;0.80;0.80;;;23.20;93.60;;;;;;4930191;29;20668;-73
2021/04/24 09:43:57;;;;;;;0.73;0.63;;;23.30;94.40;;;;;;4913656;29;20190;-72
2021/04/24 09:46:44;;;;;;;0.73;0.73;;;22.40;93.50;;;;;;4929524;29;20321;-72
2021/04/24 09:49:18;;;;;;;0.95;0.95;;;21.60;95.00;;;;;;4929794;29;20190;-72
2021/04/24 09:51:46;;;;;;;0.80;0.60;;;21.40;94.80;;;;;;4947930;29;20186;-74
2021/04/24 09:54:12;;;;;;;0.20;0.20;;;20.40;94.40;;;;;;4948023;29;20211;-72
2021/04/24 09:56:38;;;;;;;0.75;0.75;;;20.40;95.10;;;;;;4948530;29;20216;-72
2021/04/24 09:59:09;;;;;;;0.73;0.73;;;19.90;95.60;;;;;;4967907;29;20652;-72
2021/04/24 10:01:38;;;;;;;0.43;0.43;;;19.80;96.50;;;;;;4970032;28;20239;-72
2021/04/24 10:04:09;;;;;;;0.85;0.85;;;19.40;95.80;;;;;;4968826;29;20190;-72
2021/04/24 10:06:36;;;;;;;0.47;0.47;;;19.90;96.90;;;;;;4970042;29;20206;-72
2021/04/24 10:09:26;;;;;;;0.45;0.45;;;20.10;95.80;;;;;;4970042;29;20160;-73
2021/04/24 10:11:53;;;;;;;0.57;0.50;;;21.30;95.30;;;;;;4970110;29;20284;-68
2021/04/24 10:14:29;;;;;;;0.82;0.82;;;20.80;94.50;;;;;;4970114;29;20170;-69
2021/04/24 10:16:55;;;;;;;4.80;1.52;;;20.80;96.80;;;;;;4968565;29;20229;-69
2021/04/24 10:19:21;;;;;;;0.57;0.57;;;21.60;94.60;;;;;;4968330;29;20247;-69
2021/04/24 10:21:47;;;;;;;0.88;0.82;;;21.90;94.20;;;;;;4969499;28;20159;-69
2021/04/24 10:24:13;;;;;;;31.58;1.48;;;22.10;94.90;;;;;;4969877;28;20187;-69
2021/04/24 10:26:41;;;;;;;0.45;0.43;;;23.10;94.30;;;;;;4969489;29;20207;-69
2021/04/24 10:29:07;;;;;;;3.80;1.00;;;21.80;94.70;;;;;;4968123;29;20720;-69
2021/04/24 10:31:34;;;;;;;2.10;1.30;;;21.40;94.20;;;;;;4969592;28;20171;-69
2021/04/24 10:34:01;;;;;;;1.50;1.40;;;21.80;94.50;;;;;;4969772;29;20155;-68
2021/04/24 10:36:28;;;;;;;0.68;0.50;;;21.60;94.00;;;;;;4969553;29;20230;-68
2021/04/24 10:38:56;;;;;;;1.40;1.08;;;21.20;94.90;;;;;;4968935;28;20227;-69
2021/04/24 10:41:36;;;;;;;1.35;1.25;;;21.60;94.40;;;;;;4969721;28;20471;-70
2021/04/24 10:44:10;;;;;;;4.38;1.85;;;20.60;95.20;;;;;;4966215;28;20419;-69
2021/04/24 10:46:49;;;;;;;3.90;1.08;;;20.20;95.40;;;;;;4969457;28;20174;-69
2021/04/24 10:49:16;;;;;;;0.30;0.30;;;20.20;95.00;;;;;;4969149;28;20172;-70
2021/04/24 10:52:06;;;;;;;1.15;1.10;;;21.20;96.30;;;;;;4987629;28;20189;-70
2021/04/24 10:54:37;;;;;;;2.03;1.25;;;21.70;94.30;;;;;;4987462;28;20221;-70
2021/04/24 10:57:41;;;;;;;1.05;0.93;;;21.70;94.70;;;;;;4984014;28;20192;-69
2021/04/24 11:00:09;;;;;;;4.10;1.02;;;21.50;93.80;;;;;;4969340;28;20174;-69
2021/04/24 11:02:42;;;;;;;1.65;0.93;;;20.40;95.00;;;;;;4967982;29;20631;-70
2021/04/24 11:05:17;;;;;;;0.70;0.70;;;20.60;95.70;;;;;;4969208;28;20243;-69
2021/04/24 11:07:43;;;;;;;1.80;1.20;;;20.30;96.20;;;;;;4969122;28;20160;-69
2021/04/24 11:10:13;;;;;;;1.50;1.42;;;20.20;94.90;;;;;;4968656;28;20163;-69
2021/04/24 11:12:43;;;;;;;1.30;1.20;;;20.20;95.70;;;;;;4968283;28;20256;-69
2021/04/24 11:15:10;;;;;;;1.77;1.67;;;20.70;95.10;;;;;;4966462;29;20207;-69
2021/04/24 11:17:40;;;;;;;0.75;0.75;;;21.30;94.50;;;;;;4967884;28;20188;-70
2021/04/24 11:20:08;;;;;;;2.75;1.05;;;21.70;94.20;;;;;;4966589;29;20222;-70
2021/04/24 11:22:35;;;;;;;0.75;0.75;;;22.80;93.10;;;;;;4968059;28;20254;-70
2021/04/24 11:25:16;;;;;;;7.32;2.25;;;21.90;93.80;;;;;;4968341;28;20278;-70
2021/04/24 11:28:03;;;;;;;0.60;0.60;;;22.00;94.30;;;;;;4969260;28;20167;-70
2021/04/24 11:31:00;;;;;;;0.40;0.40;;;22.90;93.60;;;;;;4969036;28;20160;-70
2021/04/24 11:33:39;;;;;;;2.45;1.02;;;23.50;93.70;;;;;;4968541;28;20226;-70
2021/04/24 11:36:18;;;;;;;1.75;0.63;;;22.40;92.90;;;;;;4972719;28;20203;-69
2021/04/24 11:38:56;;;;;;;1.40;1.30;;;21.20;93.50;;;;;;4972857;28;20562;-69
2021/04/24 11:41:34;;;;;;;0.57;0.57;;;21.00;94.40;;;;;;4972533;28;20159;-69
2021/04/24 11:44:23;;;;;;;0.40;0.40;;;20.70;94.10;;;;;;4972740;28;20226;-69
2021/04/24 11:46:56;;;;;;;0.98;0.90;;;20.80;93.40;;;;;;4972357;28;20238;-70
2021/04/24 11:49:23;;;;;;;1.00;0.95;;;21.40;92.50;;;;;;4972342;28;20179;-70
2021/04/24 11:51:59;;;;;;;1.35;1.25;;;22.50;93.10;;;;;;4991647;28;20185;-70
2021/04/24 11:54:30;;;;;;;9.73;1.05;;;23.30;91.70;;;;;;4989610;28;20214;-70
2021/04/24 11:56:58;;;;;;;0.60;0.60;;;22.40;91.60;;;;;;4987761;28;20253;-69
2021/04/24 11:59:25;;;;;;;1.65;0.57;;;22.30;93.40;;;;;;4971689;28;20234;-69
2021/04/24 12:01:53;;;;;;;1.30;1.17;;;22.10;91.70;;;;;;4972205;28;20160;-69
2021/04/24 12:04:25;;;;;;;0.35;0.35;;;21.70;92.60;;;;;;4972310;28;20159;-70
2021/04/24 12:06:59;;;;;;;0.85;0.85;;;21.80;91.30;;;;;;4970734;29;20183;-69
2021/04/24 12:09:25;;;;;;;1.17;1.08;;;21.70;91.30;;;;;;4971911;28;20366;-70
2021/04/24 12:11:59;;;;;;;0.55;0.55;;;22.40;91.00;;;;;;4972189;28;20171;-69
2021/04/24 12:14:28;;;;;;;2.92;2.10;;;22.10;91.40;;;;;;4970649;28;20189;-70
2021/04/24 12:16:55;;;;;;;1.08;0.45;;;21.30;92.50;;;;;;4970600;28;20223;-69
2021/04/24 12:19:29;;;;;;;1.55;1.13;;;20.60;92.10;;;;;;4971813;28;20203;-69
2021/04/24 12:22:14;;;;;;;1.98;1.17;;;19.80;93.20;;;;;;4971724;28;20501;-69
2021/04/24 12:24:56;;;;;;;0.22;0.22;;;19.10;94.10;;;;;;4971849;28;20167;-69
2021/04/24 12:27:28;;;;;;;1.20;0.98;;;19.00;97.10;;;;;;4971798;28;20160;-69
2021/04/24 12:29:55;;;;;;;0.73;0.43;;;18.50;94.70;;;;;;4971507;28;20192;-70
2021/04/24 12:32:23;;;;;;;0.55;0.55;;;18.30;93.80;;;;;;4971627;28;20160;-70
2021/04/24 12:34:51;;;;;;;4.00;1.33;;;18.00;95.90;;;;;;4970319;29;20171;-70
2021/04/24 12:37:22;;;;;;;0.90;0.65;;;17.90;96.30;;;;;;4970321;28;20203;-69
2021/04/24 12:40:06;;;;;;;1.55;0.75;;;18.10;96.60;;;;;;4971260;28;20218;-68
2021/04/24 12:42:32;;;;;;;2.65;1.15;;;18.10;96.00;;;;;;4971292;28;20161;-68
2021/04/24 12:44:59;;;;;;;0.43;0.43;;;18.20;95.20;;;;;;4969484;28;20164;-69
2021/04/24 12:47:25;;;;;;;0.70;0.50;;;18.10;96.10;;;;;;4969980;29;20192;-68
2021/04/24 12:49:53;;;;;;;1.70;0.73;;;18.20;96.40;;;;;;4974173;28;20207;-68
2021/04/24 12:52:19;;;;;;;1.00;0.93;;;18.00;96.40;;;;;;4978315;28;20223;-69
2021/04/24 12:55:06;;;;;;;0.40;0.40;;;17.80;96.00;;;;;;4971182;28;20168;-70
2021/04/24 12:57:32;;;;;;;0.35;0.35;;;17.40;96.40;;;;;;4980004;28;20219;-69